Terminal Aerodrome Forecast
Issued by NWS

Home | Current Version | Previous Version | Text Only | Print | Product List | Glossary On
Versions: 1 2 3 4 5 6 7 8 9 10 11 12 13 14 15 16 17 18 19 20
000
FTUS45 KRIW 200536
TAFCOD
TAF
KCOD 200536Z 2006/2106 36008KT P6SM -SN SCT012 OVC022
      TEMPO 2006/2010 3SM -SN BKN012
     FM201400 36008KT P6SM OVC025
     FM201900 36007KT P6SM SCT025 OVC040
     FM210300 VRB05KT P6SM BKN070
      AMD LTD TO CLD VIS AND WIND=

USA.gov is the U.S. government's official web portal to all federal, state and local government web resources and services.